sensor_id;sensor_type;location;lat;lon;timestamp;temperature;humidity
15707;DHT22;7953;54.302;10.128;2022-09-09T00:01:51;14.80;99.90
15707;DHT22;7953;54.302;10.128;2022-09-09T00:04:26;14.70;99.90
15707;DHT22;7953;54.302;10.128;2022-09-09T00:07:03;14.80;99.90
15707;DHT22;7953;54.302;10.128;2022-09-09T00:09:39;14.80;99.90
15707;DHT22;7953;54.302;10.128;2022-09-09T00:12:11;14.80;99.90
15707;DHT22;7953;54.302;10.128;2022-09-09T00:14:46;14.90;99.90
15707;DHT22;7953;54.302;10.128;2022-09-09T00:17:30;14.90;99.90
15707;DHT22;7953;54.302;10.128;2022-09-09T00:20:02;14.90;99.90
15707;DHT22;7953;54.302;10.128;2022-09-09T00:22:32;14.90;99.90
15707;DHT22;7953;54.302;10.128;2022-09-09T00:25:09;14.90;99.90
15707;DHT22;7953;54.302;10.128;2022-09-09T00:27:41;14.90;99.90
15707;DHT22;7953;54.302;10.128;2022-09-09T00:30:16;14.90;99.90
15707;DHT22;7953;54.302;10.128;2022-09-09T00:32:45;14.90;99.90
15707;DHT22;7953;54.302;10.128;2022-09-09T00:35:17;15.00;99.90
15707;DHT22;7953;54.302;10.128;2022-09-09T00:37:46;15.00;99.90
15707;DHT22;7953;54.302;10.128;2022-09-09T00:40:23;15.00;99.90
15707;DHT22;7953;54.302;10.128;2022-09-09T00:43:00;15.00;99.90
15707;DHT22;7953;54.302;10.128;2022-09-09T00:45:45;15.00;99.90
15707;DHT22;7953;54.302;10.128;2022-09-09T00:48:15;15.00;99.90
15707;DHT22;7953;54.302;10.128;2022-09-09T00:50:47;15.00;99.90
15707;DHT22;7953;54.302;10.128;2022-09-09T00:53:28;15.00;99.90
15707;DHT22;7953;54.302;10.128;2022-09-09T00:56:05;15.10;99.90
15707;DHT22;7953;54.302;10.128;2022-09-09T00:58:35;15.00;99.90
15707;DHT22;7953;54.302;10.128;2022-09-09T01:01:05;15.00;99.90
15707;DHT22;7953;54.302;10.128;2022-09-09T01:03:37;15.00;99.90
15707;DHT22;7953;54.302;10.128;2022-09-09T01:06:16;15.00;99.90
15707;DHT22;7953;54.302;10.128;2022-09-09T01:09:04;15.10;99.90
15707;DHT22;7953;54.302;10.128;2022-09-09T01:11:51;15.10;99.90
15707;DHT22;7953;54.302;10.128;2022-09-09T01:14:29;15.00;99.90
15707;DHT22;7953;54.302;10.128;2022-09-09T01:17:00;15.00;99.90
15707;DHT22;7953;54.302;10.128;2022-09-09T01:19:49;15.00;99.90
15707;DHT22;7953;54.302;10.128;2022-09-09T01:22:22;15.00;99.90
15707;DHT22;7953;54.302;10.128;2022-09-09T01:25:09;15.00;99.90
15707;DHT22;7953;54.302;10.128;2022-09-09T01:27:42;14.90;99.90
15707;DHT22;7953;54.302;10.128;2022-09-09T01:30:12;15.00;99.90
15707;DHT22;7953;54.302;10.128;2022-09-09T01:32:42;15.00;99.90
15707;DHT22;7953;54.302;10.128;2022-09-09T01:35:17;14.90;99.90
15707;DHT22;7953;54.302;10.128;2022-09-09T01:37:48;14.90;99.90
15707;DHT22;7953;54.302;10.128;2022-09-09T01:40:16;14.90;99.90
15707;DHT22;7953;54.302;10.128;2022-09-09T01:42:44;15.00;99.90
15707;DHT22;7953;54.302;10.128;2022-09-09T01:45:11;14.90;99.90
15707;DHT22;7953;54.302;10.128;2022-09-09T01:47:38;14.90;99.90
15707;DHT22;7953;54.302;10.128;2022-09-09T01:50:07;14.90;99.90
15707;DHT22;7953;54.302;10.128;2022-09-09T01:52:37;14.90;99.90
15707;DHT22;7953;54.302;10.128;2022-09-09T01:55:06;14.90;99.90
15707;DHT22;7953;54.302;10.128;2022-09-09T01:57:36;15.00;99.90
15707;DHT22;7953;54.302;10.128;2022-09-09T02:00:09;15.00;99.90
15707;DHT22;7953;54.302;10.128;2022-09-09T02:02:44;15.00;99.90
15707;DHT22;7953;54.302;10.128;2022-09-09T02:05:21;15.00;99.90
15707;DHT22;7953;54.302;10.128;2022-09-09T02:07:51;14.90;99.90
15707;DHT22;7953;54.302;10.128;2022-09-09T02:10:23;14.90;99.90
15707;DHT22;7953;54.302;10.128;2022-09-09T02:12:57;14.90;99.90
15707;DHT22;7953;54.302;10.128;2022-09-09T02:15:34;14.90;99.90
15707;DHT22;7953;54.302;10.128;2022-09-09T02:18:05;14.90;99.90
15707;DHT22;7953;54.302;10.128;2022-09-09T02:20:35;14.90;99.90
15707;DHT22;7953;54.302;10.128;2022-09-09T02:23:04;14.90;99.90
15707;DHT22;7953;54.302;10.128;2022-09-09T02:25:34;15.00;99.90
15707;DHT22;7953;54.302;10.128;2022-09-09T02:28:03;14.90;99.90
15707;DHT22;7953;54.302;10.128;2022-09-09T02:30:34;15.00;99.90
15707;DHT22;7953;54.302;10.128;2022-09-09T02:33:03;15.00;99.90
15707;DHT22;7953;54.302;10.128;2022-09-09T02:35:32;14.90;99.90
15707;DHT22;7953;54.302;10.128;2022-09-09T02:38:05;14.90;99.90
15707;DHT22;7953;54.302;10.128;2022-09-09T02:40:33;14.90;99.90
15707;DHT22;7953;54.302;10.128;2022-09-09T02:43:00;15.00;99.90
15707;DHT22;7953;54.302;10.128;2022-09-09T02:45:34;15.00;99.90
15707;DHT22;7953;54.302;10.128;2022-09-09T02:48:09;15.00;99.90
15707;DHT22;7953;54.302;10.128;2022-09-09T02:50:43;15.00;99.90
15707;DHT22;7953;54.302;10.128;2022-09-09T02:53:16;14.90;99.90
15707;DHT22;7953;54.302;10.128;2022-09-09T02:55:47;15.00;99.90
15707;DHT22;7953;54.302;10.128;2022-09-09T02:58:16;14.90;99.90
15707;DHT22;7953;54.302;10.128;2022-09-09T03:00:46;14.90;99.90
15707;DHT22;7953;54.302;10.128;2022-09-09T03:03:14;14.90;99.90
15707;DHT22;7953;54.302;10.128;2022-09-09T03:05:42;14.90;99.90
15707;DHT22;7953;54.302;10.128;2022-09-09T03:08:09;14.90;99.90
15707;DHT22;7953;54.302;10.128;2022-09-09T03:10:36;14.90;99.90
15707;DHT22;7953;54.302;10.128;2022-09-09T03:13:03;14.90;99.90
15707;DHT22;7953;54.302;10.128;2022-09-09T03:15:31;14.90;99.90
15707;DHT22;7953;54.302;10.128;2022-09-09T03:18:00;14.90;99.90
15707;DHT22;7953;54.302;10.128;2022-09-09T03:20:28;14.90;99.90
15707;DHT22;7953;54.302;10.128;2022-09-09T03:22:56;14.90;99.90
15707;DHT22;7953;54.302;10.128;2022-09-09T03:25:23;14.90;99.90
15707;DHT22;7953;54.302;10.128;2022-09-09T03:27:51;14.90;99.90
15707;DHT22;7953;54.302;10.128;2022-09-09T03:30:20;15.00;99.90
15707;DHT22;7953;54.302;10.128;2022-09-09T03:32:46;15.00;99.90
15707;DHT22;7953;54.302;10.128;2022-09-09T03:35:15;14.90;99.90
15707;DHT22;7953;54.302;10.128;2022-09-09T03:37:42;14.90;99.90
15707;DHT22;7953;54.302;10.128;2022-09-09T03:40:10;14.80;99.90
15707;DHT22;7953;54.302;10.128;2022-09-09T03:42:37;14.80;99.90
15707;DHT22;7953;54.302;10.128;2022-09-09T03:45:05;14.90;99.90
15707;DHT22;7953;54.302;10.128;2022-09-09T03:47:32;14.90;99.90
15707;DHT22;7953;54.302;10.128;2022-09-09T03:49:59;14.90;99.90
15707;DHT22;7953;54.302;10.128;2022-09-09T03:52:27;14.90;99.90
15707;DHT22;7953;54.302;10.128;2022-09-09T03:54:54;14.90;99.90
15707;DHT22;7953;54.302;10.128;2022-09-09T03:57:22;14.80;99.90
15707;DHT22;7953;54.302;10.128;2022-09-09T03:59:49;14.80;99.90
15707;DHT22;7953;54.302;10.128;2022-09-09T04:02:16;14.80;99.90
15707;DHT22;7953;54.302;10.128;2022-09-09T04:04:43;14.70;99.90
15707;DHT22;7953;54.302;10.128;2022-09-09T04:07:09;14.80;99.90
15707;DHT22;7953;54.302;10.128;2022-09-09T04:09:38;14.70;99.90
15707;DHT22;7953;54.302;10.128;2022-09-09T04:12:05;14.80;99.90
15707;DHT22;7953;54.302;10.128;2022-09-09T04:14:32;14.70;99.90
15707;DHT22;7953;54.302;10.128;2022-09-09T04:16:59;14.80;99.90
15707;DHT22;7953;54.302;10.128;2022-09-09T04:19:26;14.70;99.90
15707;DHT22;7953;54.302;10.128;2022-09-09T04:21:53;14.70;99.90
15707;DHT22;7953;54.302;10.128;2022-09-09T04:24:20;14.70;99.90
15707;DHT22;7953;54.302;10.128;2022-09-09T04:26:48;14.70;99.90
15707;DHT22;7953;54.302;10.128;2022-09-09T04:29:15;14.70;99.90
15707;DHT22;7953;54.302;10.128;2022-09-09T04:31:42;14.70;99.90
15707;DHT22;7953;54.302;10.128;2022-09-09T04:34:10;14.70;99.90
15707;DHT22;7953;54.302;10.128;2022-09-09T04:36:36;14.70;99.90
15707;DHT22;7953;54.302;10.128;2022-09-09T04:39:06;14.70;99.90
15707;DHT22;7953;54.302;10.128;2022-09-09T04:41:33;14.70;99.90
15707;DHT22;7953;54.302;10.128;2022-09-09T04:44:03;14.60;99.90
15707;DHT22;7953;54.302;10.128;2022-09-09T04:46:30;14.60;99.90
15707;DHT22;7953;54.302;10.128;2022-09-09T04:48:59;14.70;99.90
15707;DHT22;7953;54.302;10.128;2022-09-09T04:51:26;14.60;99.90
15707;DHT22;7953;54.302;10.128;2022-09-09T04:53:53;14.60;99.90
15707;DHT22;7953;54.302;10.128;2022-09-09T04:56:20;14.60;99.90
15707;DHT22;7953;54.302;10.128;2022-09-09T04:58:47;14.60;99.90
15707;DHT22;7953;54.302;10.128;2022-09-09T05:01:17;14.70;99.90
15707;DHT22;7953;54.302;10.128;2022-09-09T05:03:45;14.70;99.90
15707;DHT22;7953;54.302;10.128;2022-09-09T05:06:13;14.70;99.90
15707;DHT22;7953;54.302;10.128;2022-09-09T05:08:42;14.70;99.90
15707;DHT22;7953;54.302;10.128;2022-09-09T05:11:16;14.70;99.90
15707;DHT22;7953;54.302;10.128;2022-09-09T05:13:44;14.80;99.90
15707;DHT22;7953;54.302;10.128;2022-09-09T05:16:11;14.80;99.90
15707;DHT22;7953;54.302;10.128;2022-09-09T05:18:40;14.70;99.90
15707;DHT22;7953;54.302;10.128;2022-09-09T05:21:08;14.70;99.90
15707;DHT22;7953;54.302;10.128;2022-09-09T05:23:35;14.70;99.90
15707;DHT22;7953;54.302;10.128;2022-09-09T05:26:03;14.80;99.90
15707;DHT22;7953;54.302;10.128;2022-09-09T05:28:31;14.70;99.90
15707;DHT22;7953;54.302;10.128;2022-09-09T05:30:58;14.80;99.90
15707;DHT22;7953;54.302;10.128;2022-09-09T05:33:27;14.80;99.90
15707;DHT22;7953;54.302;10.128;2022-09-09T05:35:57;14.80;99.90
15707;DHT22;7953;54.302;10.128;2022-09-09T05:38:24;14.80;99.90
15707;DHT22;7953;54.302;10.128;2022-09-09T05:40:52;14.80;99.90
15707;DHT22;7953;54.302;10.128;2022-09-09T05:43:19;14.90;99.90
15707;DHT22;7953;54.302;10.128;2022-09-09T05:45:46;14.90;99.90
15707;DHT22;7953;54.302;10.128;2022-09-09T05:48:27;14.90;99.90
15707;DHT22;7953;54.302;10.128;2022-09-09T05:51:12;14.90;99.90
15707;DHT22;7953;54.302;10.128;2022-09-09T05:53:53;14.90;99.90
15707;DHT22;7953;54.302;10.128;2022-09-09T05:56:27;14.90;99.90
15707;DHT22;7953;54.302;10.128;2022-09-09T05:58:58;14.90;99.90
15707;DHT22;7953;54.302;10.128;2022-09-09T06:01:28;14.90;99.90
15707;DHT22;7953;54.302;10.128;2022-09-09T06:04:00;14.90;99.90
15707;DHT22;7953;54.302;10.128;2022-09-09T06:06:33;14.90;99.90
15707;DHT22;7953;54.302;10.128;2022-09-09T06:09:03;14.90;99.90
15707;DHT22;7953;54.302;10.128;2022-09-09T06:11:34;14.90;99.90
15707;DHT22;7953;54.302;10.128;2022-09-09T06:14:01;15.00;99.90
15707;DHT22;7953;54.302;10.128;2022-09-09T06:16:30;15.10;99.90
15707;DHT22;7953;54.302;10.128;2022-09-09T06:18:58;15.00;99.90
15707;DHT22;7953;54.302;10.128;2022-09-09T06:21:26;15.00;99.90
15707;DHT22;7953;54.302;10.128;2022-09-09T06:23:55;15.00;99.90
15707;DHT22;7953;54.302;10.128;2022-09-09T06:26:24;15.00;99.90
15707;DHT22;7953;54.302;10.128;2022-09-09T06:28:52;15.10;99.90
15707;DHT22;7953;54.302;10.128;2022-09-09T06:31:21;15.00;99.90
15707;DHT22;7953;54.302;10.128;2022-09-09T06:33:49;15.10;99.90
15707;DHT22;7953;54.302;10.128;2022-09-09T06:36:18;15.10;99.90
15707;DHT22;7953;54.302;10.128;2022-09-09T06:38:45;15.10;99.90
15707;DHT22;7953;54.302;10.128;2022-09-09T06:41:16;15.10;99.90
15707;DHT22;7953;54.302;10.128;2022-09-09T06:43:43;15.10;99.90
15707;DHT22;7953;54.302;10.128;2022-09-09T06:46:12;15.10;99.90
15707;DHT22;7953;54.302;10.128;2022-09-09T06:48:39;15.10;99.90
15707;DHT22;7953;54.302;10.128;2022-09-09T06:51:08;15.20;99.90
15707;DHT22;7953;54.302;10.128;2022-09-09T06:53:37;15.20;99.90
15707;DHT22;7953;54.302;10.128;2022-09-09T06:56:18;15.20;99.90
15707;DHT22;7953;54.302;10.128;2022-09-09T06:58:47;15.20;99.90
15707;DHT22;7953;54.302;10.128;2022-09-09T07:01:15;15.20;99.90
15707;DHT22;7953;54.302;10.128;2022-09-09T07:03:45;15.30;99.90
15707;DHT22;7953;54.302;10.128;2022-09-09T07:06:14;15.30;99.90
15707;DHT22;7953;54.302;10.128;2022-09-09T07:08:42;15.30;99.90
15707;DHT22;7953;54.302;10.128;2022-09-09T07:11:10;15.40;99.90
15707;DHT22;7953;54.302;10.128;2022-09-09T07:13:39;15.50;99.90
15707;DHT22;7953;54.302;10.128;2022-09-09T07:16:09;15.60;99.90
15707;DHT22;7953;54.302;10.128;2022-09-09T07:18:36;15.70;99.90
15707;DHT22;7953;54.302;10.128;2022-09-09T07:21:03;15.70;99.90
15707;DHT22;7953;54.302;10.128;2022-09-09T07:23:32;15.80;99.90
15707;DHT22;7953;54.302;10.128;2022-09-09T07:26:01;15.80;99.90
15707;DHT22;7953;54.302;10.128;2022-09-09T07:28:28;15.90;99.90
15707;DHT22;7953;54.302;10.128;2022-09-09T07:30:58;15.90;99.90
15707;DHT22;7953;54.302;10.128;2022-09-09T07:33:26;16.00;99.90
15707;DHT22;7953;54.302;10.128;2022-09-09T07:36:02;16.00;99.90
15707;DHT22;7953;54.302;10.128;2022-09-09T07:38:29;15.90;99.90
15707;DHT22;7953;54.302;10.128;2022-09-09T07:41:03;15.90;99.90
15707;DHT22;7953;54.302;10.128;2022-09-09T07:43:31;15.90;99.90
15707;DHT22;7953;54.302;10.128;2022-09-09T07:46:00;16.00;99.90
15707;DHT22;7953;54.302;10.128;2022-09-09T07:48:28;16.00;99.90
15707;DHT22;7953;54.302;10.128;2022-09-09T07:51:06;16.00;99.90
15707;DHT22;7953;54.302;10.128;2022-09-09T07:53:37;16.00;99.90
15707;DHT22;7953;54.302;10.128;2022-09-09T07:56:06;16.00;99.90
15707;DHT22;7953;54.302;10.128;2022-09-09T07:58:35;16.10;99.90
15707;DHT22;7953;54.302;10.128;2022-09-09T08:01:11;16.10;99.90
15707;DHT22;7953;54.302;10.128;2022-09-09T08:03:39;16.20;99.90
15707;DHT22;7953;54.302;10.128;2022-09-09T08:06:08;16.30;99.90
15707;DHT22;7953;54.302;10.128;2022-09-09T08:08:35;16.30;99.90
15707;DHT22;7953;54.302;10.128;2022-09-09T08:11:05;16.40;99.90
15707;DHT22;7953;54.302;10.128;2022-09-09T08:13:33;16.50;99.90
15707;DHT22;7953;54.302;10.128;2022-09-09T08:16:09;16.50;99.90
15707;DHT22;7953;54.302;10.128;2022-09-09T08:18:37;16.60;99.90
15707;DHT22;7953;54.302;10.128;2022-09-09T08:21:06;16.70;99.90
15707;DHT22;7953;54.302;10.128;2022-09-09T08:23:34;16.70;99.90
15707;DHT22;7953;54.302;10.128;2022-09-09T08:26:05;16.80;99.90
15707;DHT22;7953;54.302;10.128;2022-09-09T08:28:34;16.90;99.90
15707;DHT22;7953;54.302;10.128;2022-09-09T08:31:10;17.00;99.90
15707;DHT22;7953;54.302;10.128;2022-09-09T08:33:39;16.90;99.90
15707;DHT22;7953;54.302;10.128;2022-09-09T08:36:09;17.00;99.90
15707;DHT22;7953;54.302;10.128;2022-09-09T08:38:37;17.20;99.90
15707;DHT22;7953;54.302;10.128;2022-09-09T08:41:28;17.50;99.90
15707;DHT22;7953;54.302;10.128;2022-09-09T08:44:02;17.70;99.90
15707;DHT22;7953;54.302;10.128;2022-09-09T08:46:38;17.70;99.90
15707;DHT22;7953;54.302;10.128;2022-09-09T08:49:23;17.80;99.90
15707;DHT22;7953;54.302;10.128;2022-09-09T08:51:57;17.90;99.90
15707;DHT22;7953;54.302;10.128;2022-09-09T08:54:25;18.00;99.90
15707;DHT22;7953;54.302;10.128;2022-09-09T08:56:54;17.90;99.90
15707;DHT22;7953;54.302;10.128;2022-09-09T08:59:21;17.90;99.90
15707;DHT22;7953;54.302;10.128;2022-09-09T09:01:57;17.90;99.90
15707;DHT22;7953;54.302;10.128;2022-09-09T09:04:51;17.90;99.90
15707;DHT22;7953;54.302;10.128;2022-09-09T09:07:29;17.90;99.90
15707;DHT22;7953;54.302;10.128;2022-09-09T09:10:02;17.90;99.90
15707;DHT22;7953;54.302;10.128;2022-09-09T09:12:35;17.90;99.90
15707;DHT22;7953;54.302;10.128;2022-09-09T09:15:14;18.00;99.90
15707;DHT22;7953;54.302;10.128;2022-09-09T09:17:44;18.00;99.90
15707;DHT22;7953;54.302;10.128;2022-09-09T09:20:12;18.20;99.90
15707;DHT22;7953;54.302;10.128;2022-09-09T09:22:46;18.60;99.90
15707;DHT22;7953;54.302;10.128;2022-09-09T09:25:17;18.90;99.90
15707;DHT22;7953;54.302;10.128;2022-09-09T09:27:49;18.90;99.90
15707;DHT22;7953;54.302;10.128;2022-09-09T09:30:21;19.00;99.90
15707;DHT22;7953;54.302;10.128;2022-09-09T09:32:53;19.30;99.90
15707;DHT22;7953;54.302;10.128;2022-09-09T09:35:20;19.50;99.90
15707;DHT22;7953;54.302;10.128;2022-09-09T09:37:48;19.70;99.90
15707;DHT22;7953;54.302;10.128;2022-09-09T09:40:16;19.90;99.90
15707;DHT22;7953;54.302;10.128;2022-09-09T09:42:53;19.90;99.90
15707;DHT22;7953;54.302;10.128;2022-09-09T09:45:29;19.90;99.90
15707;DHT22;7953;54.302;10.128;2022-09-09T09:48:03;19.80;99.90
15707;DHT22;7953;54.302;10.128;2022-09-09T09:50:32;19.70;99.90
15707;DHT22;7953;54.302;10.128;2022-09-09T09:53:02;19.60;99.90
15707;DHT22;7953;54.302;10.128;2022-09-09T09:55:30;19.60;99.90
15707;DHT22;7953;54.302;10.128;2022-09-09T09:58:03;19.70;99.90
15707;DHT22;7953;54.302;10.128;2022-09-09T10:00:30;19.60;99.90
15707;DHT22;7953;54.302;10.128;2022-09-09T10:03:00;19.50;99.90
15707;DHT22;7953;54.302;10.128;2022-09-09T10:05:29;19.50;99.90
15707;DHT22;7953;54.302;10.128;2022-09-09T10:08:02;19.60;99.90
15707;DHT22;7953;54.302;10.128;2022-09-09T10:10:40;19.80;99.90
15707;DHT22;7953;54.302;10.128;2022-09-09T10:13:15;19.80;99.90
15707;DHT22;7953;54.302;10.128;2022-09-09T10:15:51;19.80;99.90
15707;DHT22;7953;54.302;10.128;2022-09-09T10:18:36;19.90;99.90
15707;DHT22;7953;54.302;10.128;2022-09-09T10:21:20;20.20;99.90
15707;DHT22;7953;54.302;10.128;2022-09-09T10:24:08;20.30;99.90
15707;DHT22;7953;54.302;10.128;2022-09-09T10:26:44;20.30;99.90
15707;DHT22;7953;54.302;10.128;2022-09-09T10:29:26;20.30;99.90
15707;DHT22;7953;54.302;10.128;2022-09-09T10:32:08;20.30;99.90
15707;DHT22;7953;54.302;10.128;2022-09-09T10:34:55;20.30;99.90
15707;DHT22;7953;54.302;10.128;2022-09-09T10:37:35;20.40;99.90
15707;DHT22;7953;54.302;10.128;2022-09-09T10:40:16;20.50;99.90
15707;DHT22;7953;54.302;10.128;2022-09-09T10:42:46;20.50;99.90
15707;DHT22;7953;54.302;10.128;2022-09-09T10:45:18;20.50;99.90
15707;DHT22;7953;54.302;10.128;2022-09-09T10:48:00;20.50;99.90
15707;DHT22;7953;54.302;10.128;2022-09-09T10:50:50;20.60;99.90
15707;DHT22;7953;54.302;10.128;2022-09-09T10:53:28;20.60;99.90
15707;DHT22;7953;54.302;10.128;2022-09-09T10:56:04;20.50;99.90
15707;DHT22;7953;54.302;10.128;2022-09-09T10:58:37;20.50;99.90
15707;DHT22;7953;54.302;10.128;2022-09-09T11:01:11;20.40;99.90
15707;DHT22;7953;54.302;10.128;2022-09-09T11:03:42;20.50;99.90
15707;DHT22;7953;54.302;10.128;2022-09-09T11:06:14;20.50;99.90
15707;DHT22;7953;54.302;10.128;2022-09-09T11:08:44;20.50;99.90
15707;DHT22;7953;54.302;10.128;2022-09-09T11:11:16;20.60;99.90
15707;DHT22;7953;54.302;10.128;2022-09-09T11:13:49;20.60;99.90
15707;DHT22;7953;54.302;10.128;2022-09-09T11:16:24;20.60;99.90
15707;DHT22;7953;54.302;10.128;2022-09-09T11:18:57;20.60;99.90
15707;DHT22;7953;54.302;10.128;2022-09-09T11:21:28;20.70;99.90
15707;DHT22;7953;54.302;10.128;2022-09-09T11:24:00;20.90;99.90
15707;DHT22;7953;54.302;10.128;2022-09-09T11:26:31;21.00;99.90
15707;DHT22;7953;54.302;10.128;2022-09-09T11:29:19;21.10;99.90
15707;DHT22;7953;54.302;10.128;2022-09-09T11:31:59;21.20;99.90
15707;DHT22;7953;54.302;10.128;2022-09-09T11:34:37;21.20;99.90
15707;DHT22;7953;54.302;10.128;2022-09-09T11:40:17;21.10;99.90
15707;DHT22;7953;54.302;10.128;2022-09-09T11:42:45;21.00;99.90
15707;DHT22;7953;54.302;10.128;2022-09-09T11:45:24;20.90;99.90
15707;DHT22;7953;54.302;10.128;2022-09-09T11:47:55;20.90;99.90
15707;DHT22;7953;54.302;10.128;2022-09-09T11:50:31;21.00;99.90
15707;DHT22;7953;54.302;10.128;2022-09-09T11:53:21;21.10;99.90
15707;DHT22;7953;54.302;10.128;2022-09-09T11:56:02;21.10;99.90
15707;DHT22;7953;54.302;10.128;2022-09-09T11:58:40;21.20;99.90
15707;DHT22;7953;54.302;10.128;2022-09-09T12:01:27;21.30;99.90
15707;DHT22;7953;54.302;10.128;2022-09-09T12:04:10;21.40;99.90
15707;DHT22;7953;54.302;10.128;2022-09-09T12:06:43;21.30;99.90
15707;DHT22;7953;54.302;10.128;2022-09-09T12:09:19;21.30;99.90
15707;DHT22;7953;54.302;10.128;2022-09-09T12:11:50;21.50;99.90
15707;DHT22;7953;54.302;10.128;2022-09-09T12:14:22;21.70;99.90
15707;DHT22;7953;54.302;10.128;2022-09-09T12:16:49;21.90;99.90
15707;DHT22;7953;54.302;10.128;2022-09-09T12:19:20;22.00;99.90
15707;DHT22;7953;54.302;10.128;2022-09-09T12:21:54;22.10;99.90
15707;DHT22;7953;54.302;10.128;2022-09-09T12:24:29;22.10;99.90
15707;DHT22;7953;54.302;10.128;2022-09-09T12:27:03;22.10;99.90
15707;DHT22;7953;54.302;10.128;2022-09-09T12:29:40;22.00;99.90
15707;DHT22;7953;54.302;10.128;2022-09-09T12:32:11;21.90;99.90
15707;DHT22;7953;54.302;10.128;2022-09-09T12:34:40;21.90;99.90
15707;DHT22;7953;54.302;10.128;2022-09-09T12:37:15;21.90;99.90
15707;DHT22;7953;54.302;10.128;2022-09-09T12:39:46;21.90;99.90
15707;DHT22;7953;54.302;10.128;2022-09-09T12:42:18;22.00;99.90
15707;DHT22;7953;54.302;10.128;2022-09-09T12:44:56;22.10;99.90
15707;DHT22;7953;54.302;10.128;2022-09-09T12:47:26;22.20;99.90
15707;DHT22;7953;54.302;10.128;2022-09-09T12:49:55;22.10;99.90
15707;DHT22;7953;54.302;10.128;2022-09-09T12:52:26;22.10;99.90
15707;DHT22;7953;54.302;10.128;2022-09-09T12:54:56;22.00;99.90
15707;DHT22;7953;54.302;10.128;2022-09-09T12:57:26;21.80;99.90
15707;DHT22;7953;54.302;10.128;2022-09-09T13:00:11;21.80;99.90
15707;DHT22;7953;54.302;10.128;2022-09-09T13:02:47;21.90;99.90
15707;DHT22;7953;54.302;10.128;2022-09-09T13:05:18;22.00;99.90
15707;DHT22;7953;54.302;10.128;2022-09-09T13:07:45;22.10;99.90
15707;DHT22;7953;54.302;10.128;2022-09-09T13:10:15;22.10;99.90
15707;DHT22;7953;54.302;10.128;2022-09-09T13:12:43;22.20;99.90
15707;DHT22;7953;54.302;10.128;2022-09-09T13:15:19;22.30;99.90
15707;DHT22;7953;54.302;10.128;2022-09-09T13:17:53;22.30;99.90
15707;DHT22;7953;54.302;10.128;2022-09-09T13:20:21;22.10;99.90
15707;DHT22;7953;54.302;10.128;2022-09-09T13:22:49;22.10;99.90
15707;DHT22;7953;54.302;10.128;2022-09-09T13:25:20;22.10;99.90
15707;DHT22;7953;54.302;10.128;2022-09-09T13:28:02;22.10;99.90
15707;DHT22;7953;54.302;10.128;2022-09-09T13:30:31;22.10;99.90
15707;DHT22;7953;54.302;10.128;2022-09-09T13:33:18;22.10;99.90
15707;DHT22;7953;54.302;10.128;2022-09-09T13:35:49;22.00;99.90
15707;DHT22;7953;54.302;10.128;2022-09-09T13:38:16;22.10;99.90
15707;DHT22;7953;54.302;10.128;2022-09-09T13:40:53;22.20;99.90
15707;DHT22;7953;54.302;10.128;2022-09-09T13:43:25;22.20;99.90
15707;DHT22;7953;54.302;10.128;2022-09-09T13:45:56;22.00;99.90
15707;DHT22;7953;54.302;10.128;2022-09-09T13:48:24;21.90;99.90
15707;DHT22;7953;54.302;10.128;2022-09-09T13:50:57;21.80;99.90
15707;DHT22;7953;54.302;10.128;2022-09-09T13:53:24;21.60;99.90
15707;DHT22;7953;54.302;10.128;2022-09-09T13:55:51;21.70;99.90
15707;DHT22;7953;54.302;10.128;2022-09-09T13:58:19;21.70;99.90
15707;DHT22;7953;54.302;10.128;2022-09-09T14:00:49;21.80;99.90
15707;DHT22;7953;54.302;10.128;2022-09-09T14:03:16;21.90;99.90
15707;DHT22;7953;54.302;10.128;2022-09-09T14:05:44;22.00;99.90
15707;DHT22;7953;54.302;10.128;2022-09-09T14:08:25;22.10;99.90
15707;DHT22;7953;54.302;10.128;2022-09-09T14:10:53;22.10;99.90
15707;DHT22;7953;54.302;10.128;2022-09-09T14:13:21;22.20;99.90
15707;DHT22;7953;54.302;10.128;2022-09-09T14:15:49;22.20;99.90
15707;DHT22;7953;54.302;10.128;2022-09-09T14:18:16;22.20;99.90
15707;DHT22;7953;54.302;10.128;2022-09-09T14:20:44;22.10;99.90
15707;DHT22;7953;54.302;10.128;2022-09-09T14:23:11;22.00;99.90
15707;DHT22;7953;54.302;10.128;2022-09-09T14:25:42;21.90;99.90
15707;DHT22;7953;54.302;10.128;2022-09-09T14:28:11;21.70;99.90
15707;DHT22;7953;54.302;10.128;2022-09-09T14:30:39;21.60;99.90
15707;DHT22;7953;54.302;10.128;2022-09-09T14:33:11;21.50;99.90
15707;DHT22;7953;54.302;10.128;2022-09-09T14:35:38;21.30;99.90
15707;DHT22;7953;54.302;10.128;2022-09-09T14:38:07;21.20;99.90
15707;DHT22;7953;54.302;10.128;2022-09-09T14:40:34;21.10;99.90
15707;DHT22;7953;54.302;10.128;2022-09-09T14:43:01;21.00;99.90
15707;DHT22;7953;54.302;10.128;2022-09-09T14:45:28;21.00;99.90
15707;DHT22;7953;54.302;10.128;2022-09-09T14:47:55;20.80;99.90
15707;DHT22;7953;54.302;10.128;2022-09-09T14:50:26;20.80;99.90
15707;DHT22;7953;54.302;10.128;2022-09-09T14:52:55;20.60;99.90
15707;DHT22;7953;54.302;10.128;2022-09-09T14:55:22;20.50;99.90
15707;DHT22;7953;54.302;10.128;2022-09-09T14:57:49;20.40;99.90
15707;DHT22;7953;54.302;10.128;2022-09-09T15:00:18;20.30;99.90
15707;DHT22;7953;54.302;10.128;2022-09-09T15:02:45;20.10;99.90
15707;DHT22;7953;54.302;10.128;2022-09-09T15:05:11;20.00;99.90
15707;DHT22;7953;54.302;10.128;2022-09-09T15:07:40;19.90;99.90
15707;DHT22;7953;54.302;10.128;2022-09-09T15:10:07;19.80;99.90
15707;DHT22;7953;54.302;10.128;2022-09-09T15:12:34;19.70;99.90
15707;DHT22;7953;54.302;10.128;2022-09-09T15:15:02;19.60;99.90
15707;DHT22;7953;54.302;10.128;2022-09-09T15:17:29;19.50;99.90
15707;DHT22;7953;54.302;10.128;2022-09-09T15:19:56;19.40;99.90
15707;DHT22;7953;54.302;10.128;2022-09-09T15:22:23;19.30;99.90
15707;DHT22;7953;54.302;10.128;2022-09-09T15:24:51;19.20;99.90
15707;DHT22;7953;54.302;10.128;2022-09-09T15:27:18;18.80;99.90
15707;DHT22;7953;54.302;10.128;2022-09-09T15:29:45;18.20;99.90
15707;DHT22;7953;54.302;10.128;2022-09-09T15:32:12;17.90;99.90
15707;DHT22;7953;54.302;10.128;2022-09-09T15:34:39;17.80;99.90
15707;DHT22;7953;54.302;10.128;2022-09-09T15:37:06;17.70;99.90
15707;DHT22;7953;54.302;10.128;2022-09-09T15:39:36;17.70;99.90
15707;DHT22;7953;54.302;10.128;2022-09-09T15:42:05;17.70;99.90
15707;DHT22;7953;54.302;10.128;2022-09-09T15:44:38;17.60;99.90
15707;DHT22;7953;54.302;10.128;2022-09-09T15:47:05;17.60;99.90
15707;DHT22;7953;54.302;10.128;2022-09-09T15:49:32;17.50;99.90
15707;DHT22;7953;54.302;10.128;2022-09-09T15:52:00;17.50;99.90
15707;DHT22;7953;54.302;10.128;2022-09-09T15:54:32;17.40;99.90
15707;DHT22;7953;54.302;10.128;2022-09-09T15:57:02;17.40;99.90
15707;DHT22;7953;54.302;10.128;2022-09-09T15:59:31;17.30;99.90